Time;durP1;ratioP1;P1;durP2;ratioP2;P2;SDS_P1;SDS_P2;PMS_P1;PMS_P2;Temp;Humidity;BMP_temperature;BMP_pressure;BME280_temperature;BME280_humidity;BME280_pressure;Samples;Min_cycle;Max_cycle;Signal;HPM_P1;HPM_P2
2023/10/25 02:48:43;;;;;;;17.92;10.93;;;;;;;;;;6039277;23;20252;-91
2023/10/25 02:51:48;;;;;;;18.58;11.20;;;;;;;;;;6096846;23;20260;-92
2023/10/25 02:54:55;;;;;;;20.20;12.10;;;;;;;;;;6065256;23;20296;-92
2023/10/25 02:58:00;;;;;;;20.05;11.02;;;;;;;;;;6070489;23;20179;-90
2023/10/25 03:01:05;;;;;;;18.70;11.23;;;;;;;;;;6079579;23;20174;-93
2023/10/25 03:04:12;;;;;;;20.42;12.18;;;;;;;;;;6080160;23;20179;-93
2023/10/25 03:07:17;;;;;;;23.17;12.10;;;;;;;;;;6079537;23;20175;-90
2023/10/25 03:10:22;;;;;;;21.40;12.35;;;;;;;;;;6079569;23;20178;-93
2023/10/25 03:13:27;;;;;;;23.02;12.52;;;;;;;;;;6081359;23;20182;-91
2023/10/25 03:16:33;;;;;;;20.30;11.77;;;;;;;;;;6080418;23;20167;-91
2023/10/25 03:19:40;;;;;;;22.20;12.25;;;;;;;;;;6081828;23;20198;-93
2023/10/25 03:22:46;;;;;;;21.80;12.38;;;;;;;;;;6088779;23;20178;-93
2023/10/25 03:25:51;;;;;;;19.73;12.30;;;;;;;;;;6080957;23;20178;-90
2023/10/25 03:28:57;;;;;;;19.95;12.07;;;;;;;;;;6082652;23;20176;-91
2023/10/25 03:32:03;;;;;;;21.65;11.73;;;;;;;;;;6085367;23;20173;-90
2023/10/25 03:35:10;;;;;;;23.05;11.95;;;;;;;;;;6086752;23;20174;-94
2023/10/25 03:38:15;;;;;;;22.85;13.07;;;;;;;;;;6085990;23;20185;-92
2023/10/25 03:41:22;;;;;;;21.40;11.95;;;;;;;;;;6085894;23;20171;-93
2023/10/25 03:44:28;;;;;;;20.65;12.05;;;;;;;;;;6086682;23;20255;-92
2023/10/25 03:47:34;;;;;;;24.33;12.77;;;;;;;;;;6086653;23;20153;-91
2023/10/25 03:50:41;;;;;;;21.35;12.40;;;;;;;;;;6086707;23;20198;-94
2023/10/25 03:53:47;;;;;;;20.30;11.98;;;;;;;;;;6087436;23;20179;-93
2023/10/25 03:56:53;;;;;;;19.70;11.07;;;;;;;;;;6087977;23;20158;-91
2023/10/25 03:59:59;;;;;;;17.73;11.25;;;;;;;;;;6086167;23;20206;-91
2023/10/25 04:03:05;;;;;;;21.58;11.75;;;;;;;;;;6085386;23;20227;-91
2023/10/25 04:06:15;;;;;;;21.25;12.18;;;;;;;;;;6085913;23;20166;-93
2023/10/25 04:09:20;;;;;;;22.67;11.15;;;;;;;;;;6086225;23;20187;-91
2023/10/25 04:12:27;;;;;;;20.77;10.93;;;;;;;;;;6087084;23;20206;-91
2023/10/25 04:15:35;;;;;;;18.83;11.10;;;;;;;;;;6103629;23;20171;-92
2023/10/25 04:18:40;;;;;;;20.40;10.57;;;;;;;;;;6086737;23;20179;-89
2023/10/25 04:21:47;;;;;;;20.83;12.30;;;;;;;;;;6088952;23;20174;-93
2023/10/25 04:24:54;;;;;;;17.05;10.60;;;;;;;;;;6085674;23;20178;-91
2023/10/25 04:28:00;;;;;;;20.00;12.15;;;;;;;;;;6086532;23;20196;-91
2023/10/25 04:31:06;;;;;;;20.70;11.80;;;;;;;;;;6086660;23;20208;-92
2023/10/25 04:34:11;;;;;;;21.60;12.30;;;;;;;;;;6086428;23;20154;-94
2023/10/25 04:37:18;;;;;;;20.98;11.38;;;;;;;;;;6099761;23;20178;-92
2023/10/25 04:40:23;;;;;;;21.45;12.18;;;;;;;;;;6081683;23;20194;-90
2023/10/25 04:43:28;;;;;;;19.83;12.43;;;;;;;;;;6082146;23;20558;-93
2023/10/25 04:46:37;;;;;;;19.65;11.60;;;;;;;;;;6085715;23;20192;-92
2023/10/25 04:49:44;;;;;;;20.77;10.93;;;;;;;;;;6103986;23;20223;-90
2023/10/25 04:52:51;;;;;;;20.58;12.30;;;;;;;;;;6085286;23;20170;-93
2023/10/25 04:55:56;;;;;;;21.63;12.15;;;;;;;;;;6084540;23;20171;-92
2023/10/25 04:59:02;;;;;;;20.65;12.43;;;;;;;;;;6081889;23;20175;-92
2023/10/25 05:02:08;;;;;;;22.52;12.25;;;;;;;;;;6085244;23;20182;-93
2023/10/25 05:05:13;;;;;;;23.30;12.48;;;;;;;;;;6084586;23;20232;-91
2023/10/25 05:08:22;;;;;;;21.95;11.73;;;;;;;;;;6103861;23;20242;-90
2023/10/25 05:11:30;;;;;;;20.40;12.23;;;;;;;;;;6100713;23;20219;-91
2023/10/25 05:14:35;;;;;;;19.30;11.65;;;;;;;;;;6083420;23;20175;-89
2023/10/25 05:17:41;;;;;;;22.52;11.73;;;;;;;;;;6083344;23;20170;-92
2023/10/25 05:20:47;;;;;;;22.10;12.60;;;;;;;;;;6083365;23;20193;-90
2023/10/25 05:23:54;;;;;;;18.55;10.82;;;;;;;;;;6081164;23;20182;-89
2023/10/25 05:27:00;;;;;;;19.98;11.48;;;;;;;;;;6084279;23;20190;-90
2023/10/25 05:30:07;;;;;;;20.75;11.52;;;;;;;;;;6101124;23;20192;-89
2023/10/25 05:33:13;;;;;;;18.73;11.55;;;;;;;;;;6082262;23;20169;-89
2023/10/25 05:36:19;;;;;;;16.83;10.73;;;;;;;;;;6080185;23;20196;-90
2023/10/25 05:39:26;;;;;;;18.08;11.07;;;;;;;;;;6084029;23;20315;-90
2023/10/25 05:42:33;;;;;;;18.15;10.85;;;;;;;;;;6082709;23;20188;-91
2023/10/25 05:45:39;;;;;;;22.70;11.18;;;;;;;;;;6083060;23;20178;-89
2023/10/25 05:48:45;;;;;;;21.65;11.50;;;;;;;;;;6084466;23;20174;-91
2023/10/25 05:51:51;;;;;;;21.08;11.57;;;;;;;;;;6085020;23;20220;-91
2023/10/25 05:55:00;;;;;;;21.73;11.32;;;;;;;;;;6084838;23;20158;-91
2023/10/25 05:58:05;;;;;;;19.80;11.57;;;;;;;;;;6084515;23;20174;-91
2023/10/25 06:01:12;;;;;;;20.50;11.57;;;;;;;;;;6085813;23;20198;-90
2023/10/25 06:04:19;;;;;;;18.10;10.70;;;;;;;;;;6107005;23;20195;-89
2023/10/25 06:07:25;;;;;;;19.40;10.88;;;;;;;;;;6102912;23;20170;-91
2023/10/25 06:10:35;;;;;;;27.25;11.15;;;;;;;;;;6087385;23;20183;-92
2023/10/25 06:13:43;;;;;;;21.05;10.90;;;;;;;;;;6087308;23;20199;-91
2023/10/25 06:16:48;;;;;;;20.98;10.68;;;;;;;;;;6082045;23;20191;-90
2023/10/25 06:19:54;;;;;;;21.45;11.18;;;;;;;;;;6082359;23;20205;-92
2023/10/25 06:22:59;;;;;;;20.30;11.95;;;;;;;;;;6081740;23;20250;-91
2023/10/25 06:26:05;;;;;;;21.30;11.30;;;;;;;;;;6083438;23;20202;-92
2023/10/25 06:29:11;;;;;;;19.48;11.57;;;;;;;;;;6085790;23;20179;-91
2023/10/25 06:32:16;;;;;;;20.40;11.00;;;;;;;;;;6082709;23;20216;-93
2023/10/25 06:35:22;;;;;;;18.98;11.20;;;;;;;;;;6101663;23;20219;-91
2023/10/25 06:38:27;;;;;;;21.73;11.15;;;;;;;;;;6101026;23;20174;-92
2023/10/25 06:41:37;;;;;;;17.63;10.88;;;;;;;;;;6084517;23;20178;-92
2023/10/25 06:44:43;;;;;;;18.40;11.25;;;;;;;;;;6081803;23;20217;-91
2023/10/25 06:47:48;;;;;;;20.85;11.10;;;;;;;;;;6079849;23;20218;-91
2023/10/25 06:50:56;;;;;;;19.45;10.95;;;;;;;;;;6081438;23;20174;-90
2023/10/25 06:54:02;;;;;;;18.55;10.68;;;;;;;;;;6081277;23;20198;-90
2023/10/25 06:57:11;;;;;;;17.05;10.98;;;;;;;;;;6086735;23;20170;-92
2023/10/25 07:00:17;;;;;;;18.58;11.65;;;;;;;;;;6084644;23;20202;-90
2023/10/25 07:03:25;;;;;;;18.38;10.90;;;;;;;;;;6081570;23;20212;-91
2023/10/25 07:06:30;;;;;;;17.08;10.25;;;;;;;;;;6100716;23;20162;-90
2023/10/25 07:09:35;;;;;;;18.20;9.75;;;;;;;;;;6079709;23;20211;-90
2023/10/25 07:12:42;;;;;;;17.58;9.77;;;;;;;;;;6080601;23;20329;-90
2023/10/25 07:15:49;;;;;;;17.05;10.30;;;;;;;;;;6080120;23;20250;-92
2023/10/25 07:18:54;;;;;;;15.95;9.88;;;;;;;;;;6080977;23;20199;-91
2023/10/25 07:21:59;;;;;;;16.10;9.85;;;;;;;;;;6083722;23;20451;-92
2023/10/25 07:25:05;;;;;;;16.55;10.93;;;;;;;;;;6081615;23;20250;-89
2023/10/25 07:28:16;;;;;;;17.17;10.80;;;;;;;;;;6082521;23;20244;-90
2023/10/25 07:31:21;;;;;;;15.30;10.05;;;;;;;;;;6083877;23;20627;-92
2023/10/25 07:34:26;;;;;;;16.23;10.77;;;;;;;;;;6082567;23;20556;-92
2023/10/25 07:37:31;;;;;;;18.30;10.68;;;;;;;;;;6087408;23;20178;-91
2023/10/25 07:40:38;;;;;;;16.55;10.27;;;;;;;;;;6082360;23;20326;-92
2023/10/25 07:43:47;;;;;;;16.20;10.13;;;;;;;;;;6081548;23;20169;-90
2023/10/25 07:46:53;;;;;;;19.45;10.88;;;;;;;;;;6099608;23;20146;-92
2023/10/25 07:49:59;;;;;;;17.98;10.18;;;;;;;;;;6097863;23;20698;-92
2023/10/25 07:53:04;;;;;;;15.82;10.40;;;;;;;;;;6082633;23;20193;-91
2023/10/25 07:56:10;;;;;;;15.35;10.02;;;;;;;;;;6102603;23;20192;-93
2023/10/25 13:28:34;;;;;;;3.17;2.20;;;;;;;;;;6039452;23;20342;-90
2023/10/25 13:31:39;;;;;;;3.75;2.40;;;;;;;;;;6053691;23;20194;-90
2023/10/25 13:34:46;;;;;;;4.90;2.65;;;;;;;;;;6041467;23;20729;-90
2023/10/25 13:37:51;;;;;;;4.13;2.20;;;;;;;;;;6044224;23;20175;-89
2023/10/25 13:40:58;;;;;;;4.50;3.15;;;;;;;;;;6054753;23;20199;-89
2023/10/25 13:44:05;;;;;;;4.40;2.97;;;;;;;;;;6052151;23;20175;-89
2023/10/25 13:47:10;;;;;;;3.95;3.00;;;;;;;;;;6053078;23;20179;-91
2023/10/25 13:50:15;;;;;;;3.60;2.45;;;;;;;;;;6051260;23;20243;-92
2023/10/25 13:53:20;;;;;;;4.70;2.70;;;;;;;;;;6050798;23;20175;-92
2023/10/25 13:56:28;;;;;;;3.05;2.40;;;;;;;;;;6054660;23;20163;-90
2023/10/25 13:59:34;;;;;;;5.00;2.80;;;;;;;;;;6053696;23;20180;-90
2023/10/25 14:02:40;;;;;;;2.85;2.35;;;;;;;;;;6052677;23;20176;-89
2023/10/25 14:05:45;;;;;;;3.75;2.83;;;;;;;;;;6053738;23;20175;-90
2023/10/25 14:08:50;;;;;;;5.70;3.08;;;;;;;;;;6052130;23;20175;-89
2023/10/25 14:11:55;;;;;;;3.65;2.42;;;;;;;;;;6052421;23;20167;-90
2023/10/25 14:15:01;;;;;;;6.50;3.55;;;;;;;;;;6050649;23;20175;-90
2023/10/25 14:18:11;;;;;;;5.97;3.95;;;;;;;;;;6054286;23;20174;-90
2023/10/25 14:21:18;;;;;;;9.35;5.78;;;;;;;;;;6052188;23;20259;-89
2023/10/25 14:24:22;;;;;;;4.43;2.95;;;;;;;;;;6054503;23;20183;-92
2023/10/25 14:27:28;;;;;;;3.67;2.80;;;;;;;;;;6055353;23;20552;-89
2023/10/25 14:30:38;;;;;;;3.42;2.42;;;;;;;;;;6051988;23;20199;-89
2023/10/25 14:33:43;;;;;;;7.97;3.45;;;;;;;;;;6053772;23;20195;-91
2023/10/25 14:36:49;;;;;;;4.75;3.10;;;;;;;;;;6037529;23;20780;-90
2023/10/25 14:39:54;;;;;;;5.57;3.17;;;;;;;;;;6052876;23;20175;-90
2023/10/25 14:42:59;;;;;;;3.22;2.25;;;;;;;;;;6054066;23;20183;-89
2023/10/25 14:49:32;;;;;;;6.95;2.33;;;;;;;;;;6052803;23;20199;-90
2023/10/25 14:52:41;;;;;;;2.85;1.95;;;;;;;;;;6055998;23;20220;-91
2023/10/25 14:55:47;;;;;;;3.58;1.70;;;;;;;;;;6051545;23;20190;-92
2023/10/25 14:58:54;;;;;;;2.92;1.90;;;;;;;;;;6051512;23;20272;-91
2023/10/25 15:02:01;;;;;;;3.08;1.70;;;;;;;;;;6052828;23;20210;-91
2023/10/25 15:05:07;;;;;;;3.63;1.65;;;;;;;;;;6055096;23;20166;-89
2023/10/25 15:08:12;;;;;;;3.85;2.00;;;;;;;;;;6050924;23;20179;-89
2023/10/25 15:11:18;;;;;;;6.13;2.50;;;;;;;;;;6052892;23;20175;-90
2023/10/25 18:19:22;;;;;;;18.73;9.40;;;;;;;;;;6054402;23;20674;-91
2023/10/25 18:22:29;;;;;;;15.15;7.68;;;;;;;;;;6080552;23;20223;-87
2023/10/25 18:25:35;;;;;;;51.45;20.08;;;;;;;;;;6083744;23;20207;-90
2023/10/25 18:28:40;;;;;;;61.20;30.88;;;;;;;;;;6083972;23;20170;-90
2023/10/25 18:31:46;;;;;;;31.38;15.48;;;;;;;;;;6083967;23;20174;-91
2023/10/25 18:34:53;;;;;;;16.65;7.68;;;;;;;;;;6083011;23;20547;-91
2023/10/25 18:37:58;;;;;;;16.75;8.05;;;;;;;;;;6082219;23;20291;-89
2023/10/25 18:41:04;;;;;;;18.15;7.82;;;;;;;;;;6100426;23;20273;-89
2023/10/25 18:44:12;;;;;;;20.48;7.45;;;;;;;;;;6084851;23;20174;-89
2023/10/25 18:47:17;;;;;;;16.83;8.10;;;;;;;;;;6084390;23;20178;-91
2023/10/25 18:50:38;;;;;;;16.40;8.02;;;;;;;;;;6088199;23;20283;-89
2023/10/25 18:53:46;;;;;;;14.82;8.88;;;;;;;;;;6088643;23;20303;-89
2023/10/25 18:56:52;;;;;;;16.85;7.18;;;;;;;;;;6089967;23;20216;-90
2023/10/25 19:00:08;;;;;;;11.98;6.50;;;;;;;;;;6089347;23;20558;-90
2023/10/25 19:03:15;;;;;;;16.10;6.95;;;;;;;;;;6105879;23;20218;-90
2023/10/25 19:06:21;;;;;;;17.73;6.70;;;;;;;;;;6088912;23;20154;-91
2023/10/25 19:09:33;;;;;;;13.68;6.22;;;;;;;;;;6105190;23;20290;-89
2023/10/25 19:12:40;;;;;;;11.23;5.85;;;;;;;;;;6088874;23;20250;-91
2023/10/25 19:15:45;;;;;;;16.30;6.32;;;;;;;;;;6085886;23;20179;-89
2023/10/25 19:18:51;;;;;;;15.98;7.82;;;;;;;;;;6085461;23;20198;-90
2023/10/25 19:21:57;;;;;;;13.80;6.32;;;;;;;;;;6084733;23;20190;-90
2023/10/25 19:25:04;;;;;;;16.13;6.97;;;;;;;;;;6085995;23;20211;-90
2023/10/25 19:28:09;;;;;;;14.13;7.30;;;;;;;;;;6086189;23;20169;-91
2023/10/25 19:31:15;;;;;;;13.25;6.82;;;;;;;;;;6087087;23;20170;-89
2023/10/25 19:34:20;;;;;;;27.55;10.80;;;;;;;;;;6086276;23;20171;-90
2023/10/25 19:37:27;;;;;;;26.58;11.82;;;;;;;;;;6086079;23;20183;-90
2023/10/25 19:40:37;;;;;;;15.35;8.20;;;;;;;;;;6085876;23;20158;-91
2023/10/25 19:43:44;;;;;;;14.93;7.70;;;;;;;;;;6086883;23;20202;-91
2023/10/25 19:46:50;;;;;;;22.02;12.02;;;;;;;;;;6102389;23;20223;-89
2023/10/25 19:49:57;;;;;;;9.95;5.57;;;;;;;;;;6103059;23;20219;-90
2023/10/25 19:53:02;;;;;;;11.82;6.30;;;;;;;;;;6083178;23;20240;-89
2023/10/25 19:56:12;;;;;;;13.98;7.78;;;;;;;;;;6085546;23;20169;-90
2023/10/25 19:59:19;;;;;;;20.40;8.55;;;;;;;;;;6088381;23;20223;-89
2023/10/25 20:02:27;;;;;;;16.67;7.10;;;;;;;;;;6085718;23;20301;-89
2023/10/25 20:05:34;;;;;;;15.30;7.95;;;;;;;;;;6085311;23;20187;-89
2023/10/25 20:08:40;;;;;;;18.65;8.48;;;;;;;;;;6083218;23;20275;-89
2023/10/25 20:11:49;;;;;;;18.88;8.40;;;;;;;;;;6084308;23;20203;-89
2023/10/25 20:14:55;;;;;;;15.43;7.43;;;;;;;;;;6084938;23;20162;-90
2023/10/25 20:18:00;;;;;;;16.13;6.50;;;;;;;;;;6087263;23;20238;-90
2023/10/25 20:21:08;;;;;;;15.10;6.80;;;;;;;;;;6090405;23;20223;-90
2023/10/25 20:24:14;;;;;;;18.10;7.20;;;;;;;;;;6087824;23;20170;-91
2023/10/25 20:27:21;;;;;;;17.55;8.55;;;;;;;;;;6086275;23;20200;-90
2023/10/25 20:30:27;;;;;;;24.30;12.05;;;;;;;;;;6087320;23;20158;-91
2023/10/25 20:33:34;;;;;;;38.92;16.10;;;;;;;;;;6088143;23;20220;-90
2023/10/25 20:36:42;;;;;;;30.98;12.88;;;;;;;;;;6089034;23;20203;-91
2023/10/25 20:39:47;;;;;;;15.52;7.28;;;;;;;;;;6088574;23;20179;-92
2023/10/25 20:42:55;;;;;;;14.52;8.20;;;;;;;;;;6088996;23;20197;-94
2023/10/25 20:46:04;;;;;;;19.30;7.78;;;;;;;;;;6091138;23;20167;-92
2023/10/25 20:49:12;;;;;;;22.90;10.15;;;;;;;;;;6089835;23;20178;-90
2023/10/25 20:52:18;;;;;;;15.07;8.48;;;;;;;;;;6089962;23;20178;-91
2023/10/25 20:55:24;;;;;;;15.30;8.15;;;;;;;;;;6086464;23;20175;-93
2023/10/25 20:58:31;;;;;;;17.23;9.00;;;;;;;;;;6086715;23;20169;-92
2023/10/25 21:01:36;;;;;;;15.43;8.80;;;;;;;;;;6100283;23;20198;-91
2023/10/25 21:04:42;;;;;;;15.95;8.65;;;;;;;;;;6082503;23;20243;-90
2023/10/25 21:07:47;;;;;;;19.45;9.02;;;;;;;;;;6101460;23;20552;-92
2023/10/25 21:10:53;;;;;;;19.60;9.38;;;;;;;;;;6085432;23;20215;-92
2023/10/25 21:13:59;;;;;;;16.55;9.88;;;;;;;;;;6083954;23;20178;-89
2023/10/25 21:17:07;;;;;;;17.95;8.65;;;;;;;;;;6084778;23;20171;-93
2023/10/25 21:20:13;;;;;;;17.55;9.38;;;;;;;;;;6101325;23;20190;-92
2023/10/25 21:23:18;;;;;;;17.90;8.65;;;;;;;;;;6082970;23;20298;-92
2023/10/25 21:26:22;;;;;;;15.68;8.20;;;;;;;;;;6086403;23;20626;-92
2023/10/25 21:29:29;;;;;;;15.00;8.60;;;;;;;;;;6082497;23;20258;-94
2023/10/25 21:32:34;;;;;;;17.50;9.05;;;;;;;;;;6084132;23;20167;-90
2023/10/25 21:35:42;;;;;;;17.48;9.55;;;;;;;;;;6083854;23;20159;-92
2023/10/25 21:38:48;;;;;;;16.80;9.48;;;;;;;;;;6083555;23;20234;-89
2023/10/25 21:41:53;;;;;;;18.73;9.93;;;;;;;;;;6082175;23;20270;-90
2023/10/25 21:45:00;;;;;;;21.35;10.00;;;;;;;;;;6081176;23;20175;-93
2023/10/25 21:48:05;;;;;;;16.75;9.85;;;;;;;;;;6080926;23;20175;-90
2023/10/25 21:51:10;;;;;;;16.48;9.70;;;;;;;;;;6079295;23;20171;-91
2023/10/25 21:54:15;;;;;;;16.77;8.90;;;;;;;;;;6082002;23;20234;-92
2023/10/25 21:57:20;;;;;;;20.05;10.00;;;;;;;;;;6081424;23;20174;-90
2023/10/25 22:00:27;;;;;;;19.42;9.88;;;;;;;;;;6081172;23;20539;-88
2023/10/25 22:03:32;;;;;;;18.02;10.02;;;;;;;;;;6098317;23;20198;-91
2023/10/25 22:06:38;;;;;;;16.17;9.27;;;;;;;;;;6096696;23;20170;-90
2023/10/25 22:09:43;;;;;;;18.90;10.50;;;;;;;;;;6082375;23;20170;-90
2023/10/25 22:12:48;;;;;;;14.10;6.53;;;;;;;;;;6098555;23;20199;-90
2023/10/25 22:15:54;;;;;;;16.00;8.50;;;;;;;;;;6081391;23;20171;-91
2023/10/25 22:19:00;;;;;;;16.65;9.45;;;;;;;;;;6080482;23;20198;-89
2023/10/25 22:22:05;;;;;;;18.92;9.45;;;;;;;;;;6081602;23;20198;-90
2023/10/25 22:25:10;;;;;;;15.40;9.02;;;;;;;;;;6080230;23;20171;-90
2023/10/25 22:28:16;;;;;;;13.90;8.60;;;;;;;;;;6085966;23;20229;-91
2023/10/25 22:31:22;;;;;;;16.98;8.82;;;;;;;;;;6080150;23;20155;-89
2023/10/25 22:34:28;;;;;;;15.82;8.70;;;;;;;;;;6080023;23;20222;-90
2023/10/25 22:37:33;;;;;;;17.88;9.07;;;;;;;;;;6080852;23;20179;-92
2023/10/25 22:40:38;;;;;;;16.38;8.98;;;;;;;;;;6081421;23;20248;-90
2023/10/25 22:43:44;;;;;;;15.77;8.95;;;;;;;;;;6080990;23;20531;-91
2023/10/25 22:46:50;;;;;;;14.07;8.85;;;;;;;;;;6081225;23;20182;-90
2023/10/25 22:49:55;;;;;;;16.10;8.95;;;;;;;;;;6082156;23;20166;-91
2023/10/25 22:53:01;;;;;;;63.35;27.35;;;;;;;;;;6082484;23;20229;-91
2023/10/25 22:56:09;;;;;;;16.95;9.75;;;;;;;;;;6082556;23;20177;-90
2023/10/25 22:59:15;;;;;;;19.67;9.85;;;;;;;;;;6081007;23;20170;-91
2023/10/25 23:02:21;;;;;;;18.45;10.73;;;;;;;;;;6080384;23;20220;-90
2023/10/25 23:05:27;;;;;;;22.65;10.30;;;;;;;;;;6081552;23;20256;-89
2023/10/25 23:08:32;;;;;;;20.77;10.95;;;;;;;;;;6097310;23;20246;-89
2023/10/25 23:11:37;;;;;;;18.67;10.57;;;;;;;;;;6079908;23;20158;-89
2023/10/25 23:14:42;;;;;;;16.77;9.98;;;;;;;;;;6081528;23;20219;-91
2023/10/25 23:17:48;;;;;;;18.17;10.70;;;;;;;;;;6081586;23;20287;-90
2023/10/25 23:20:54;;;;;;;19.70;11.32;;;;;;;;;;6082386;23;20500;-90
2023/10/25 23:23:59;;;;;;;20.10;10.70;;;;;;;;;;6079483;23;20291;-90
2023/10/25 23:27:04;;;;;;;17.17;9.30;;;;;;;;;;6082628;23;20155;-93
2023/10/25 23:30:10;;;;;;;14.52;8.50;;;;;;;;;;6083848;23;20195;-89
2023/10/25 23:33:16;;;;;;;14.75;8.23;;;;;;;;;;6082906;23;20226;-92
2023/10/25 23:36:21;;;;;;;12.38;7.30;;;;;;;;;;6083327;23;20242;-90
2023/10/25 23:39:26;;;;;;;14.20;7.85;;;;;;;;;;6079399;23;20501;-92
2023/10/25 23:42:32;;;;;;;12.30;7.40;;;;;;;;;;6080533;23;20259;-92
2023/10/25 23:45:38;;;;;;;15.27;7.50;;;;;;;;;;6080030;23;20170;-91
2023/10/25 23:48:45;;;;;;;13.57;7.00;;;;;;;;;;6081406;23;20189;-93
2023/10/25 23:51:50;;;;;;;12.63;7.20;;;;;;;;;;6081286;23;20206;-93
2023/10/25 23:54:55;;;;;;;13.60;7.38;;;;;;;;;;6079064;23;20250;-91
2023/10/25 23:58:00;;;;;;;13.82;6.88;;;;;;;;;;6080324;23;20174;-90
